createdAt,value
2019-01-29T00:02:10.936Z,1.70
2019-01-29T00:04:39.129Z,1.60
2019-01-29T00:07:07.335Z,1.60
2019-01-29T00:09:35.519Z,1.60
2019-01-29T00:12:03.779Z,1.50
2019-01-29T00:14:31.975Z,1.50
2019-01-29T00:17:00.166Z,1.50
2019-01-29T00:19:28.351Z,1.50
2019-01-29T00:21:56.548Z,1.40
2019-01-29T00:24:24.739Z,1.50
2019-01-29T00:26:53.500Z,1.50
2019-01-29T00:29:21.707Z,1.60
2019-01-29T00:31:49.891Z,1.60
2019-01-29T00:34:18.091Z,1.70
2019-01-29T00:36:46.276Z,1.60
2019-01-29T00:39:14.467Z,1.60
2019-01-29T00:41:42.948Z,1.60
2019-01-29T00:44:11.147Z,1.70
2019-01-29T00:46:39.330Z,1.60
2019-01-29T00:49:07.535Z,1.60
2019-01-29T00:51:35.728Z,1.60
2019-01-29T01:01:01.743Z,1.60
2019-01-29T01:03:29.928Z,1.50
2019-01-29T01:05:58.132Z,1.50
2019-01-29T01:08:26.314Z,1.60
2019-01-29T01:10:54.515Z,1.70
2019-01-29T01:13:22.708Z,1.70
2019-01-29T01:15:50.904Z,1.70
2019-01-29T01:18:19.087Z,1.70
2019-01-29T01:20:47.273Z,1.80
2019-01-29T01:23:15.472Z,1.90
2019-01-29T01:25:44.231Z,1.80
2019-01-29T01:28:12.423Z,1.90
2019-01-29T01:30:40.603Z,1.90
2019-01-29T01:33:08.807Z,1.90
2019-01-29T01:35:36.987Z,1.80
2019-01-29T01:38:05.187Z,1.80
2019-01-29T01:40:33.370Z,1.80
2019-01-29T01:43:01.653Z,1.80
2019-01-29T01:45:29.843Z,1.70
2019-01-29T01:47:58.035Z,1.80
2019-01-29T01:50:26.239Z,1.80
2019-01-29T01:52:59.279Z,1.80
2019-01-29T01:55:24.371Z,1.80
2019-01-29T01:57:52.575Z,1.60
2019-01-29T02:00:21.907Z,1.60
2019-01-29T02:02:50.113Z,1.50
2019-01-29T02:05:18.384Z,1.50
2019-01-29T02:07:46.589Z,1.40
2019-01-29T02:10:20.127Z,1.50
2019-01-29T02:12:48.343Z,1.50
2019-01-29T02:15:16.535Z,1.50
2019-01-29T02:17:44.743Z,1.50
2019-01-29T02:20:14.979Z,1.50
2019-01-29T02:22:43.171Z,1.60
2019-01-29T02:25:11.371Z,1.60
2019-01-29T02:27:39.559Z,1.60
2019-01-29T02:30:11.399Z,1.70
2019-01-29T02:32:39.603Z,1.80
2019-01-29T02:35:07.791Z,1.80
2019-01-29T02:37:35.986Z,1.80
2019-01-29T02:40:07.436Z,1.90
2019-01-29T02:42:35.623Z,1.90
2019-01-29T02:45:05.924Z,1.90
2019-01-29T02:47:34.111Z,1.90
2019-01-29T02:50:02.354Z,1.90
2019-01-29T02:52:30.528Z,1.90
2019-01-29T02:54:58.719Z,1.90
2019-01-29T02:57:26.923Z,1.90
2019-01-29T02:59:55.119Z,1.90
2019-01-29T03:02:23.315Z,2.00
2019-01-29T03:04:53.394Z,2.10
2019-01-29T03:07:21.432Z,2.00
2019-01-29T03:09:49.743Z,2.10
2019-01-29T03:12:17.951Z,2.10
2019-01-29T03:14:46.144Z,2.10
2019-01-29T03:17:14.335Z,2.10
2019-01-29T03:19:42.536Z,2.10
2019-01-29T03:22:10.727Z,2.10
2019-01-29T03:24:38.927Z,2.10
2019-01-29T03:27:07.121Z,2.00
2019-01-29T03:29:35.327Z,2.10
2019-01-29T03:32:03.777Z,2.00
2019-01-29T03:34:31.966Z,2.00
2019-01-29T03:37:00.171Z,2.00
2019-01-29T03:39:28.644Z,1.90
2019-01-29T03:41:56.840Z,2.00
2019-01-29T03:44:25.044Z,2.00
2019-01-29T03:46:53.236Z,1.90
2019-01-29T03:49:21.442Z,1.90
2019-01-29T03:51:49.627Z,1.90
2019-01-29T03:54:17.819Z,1.80
2019-01-29T03:56:46.019Z,1.70
2019-01-29T03:59:14.222Z,1.60
2019-01-29T04:01:42.409Z,1.60
2019-01-29T04:04:10.619Z,1.70
2019-01-29T04:06:38.810Z,1.70
2019-01-29T04:09:08.238Z,1.70
2019-01-29T04:11:36.431Z,1.70
2019-01-29T04:14:04.620Z,1.70
2019-01-29T04:16:32.813Z,1.70
2019-01-29T04:19:01.266Z,1.60
2019-01-29T04:21:29.450Z,1.50
2019-01-29T04:23:57.644Z,1.50
2019-01-29T04:26:25.844Z,1.40
2019-01-29T04:28:54.035Z,1.30
2019-01-29T04:31:22.239Z,1.30
2019-01-29T04:33:50.445Z,1.30
2019-01-29T04:36:18.647Z,1.30
2019-01-29T04:38:46.835Z,1.40
2019-01-29T04:41:15.038Z,1.50
2019-01-29T04:43:43.232Z,1.50
2019-01-29T04:46:11.416Z,1.60
2019-01-29T04:48:39.615Z,1.70
2019-01-29T04:51:07.819Z,1.60
2019-01-29T04:53:36.016Z,1.70
2019-01-29T04:56:04.203Z,1.60
2019-01-29T04:58:32.402Z,1.60
2019-01-29T05:01:00.604Z,1.60
2019-01-29T05:03:28.791Z,1.60
2019-01-29T05:05:57.560Z,1.70
2019-01-29T05:08:25.763Z,1.80
2019-01-29T05:10:53.945Z,1.70
2019-01-29T05:13:22.164Z,1.80
2019-01-29T05:15:50.344Z,1.70
2019-01-29T05:18:18.539Z,1.70
2019-01-29T05:20:46.812Z,1.60
2019-01-29T05:23:15.003Z,1.60
2019-01-29T05:25:43.217Z,1.50
2019-01-29T05:28:11.399Z,1.30
2019-01-29T05:30:39.587Z,1.30
2019-01-29T05:33:07.793Z,1.20
2019-01-29T05:35:35.991Z,1.20
2019-01-29T05:38:04.309Z,1.20
2019-01-29T05:40:32.660Z,1.10
2019-01-29T05:43:00.843Z,1.10
2019-01-29T05:45:29.047Z,1.10
2019-01-29T05:47:57.240Z,1.10
2019-01-29T05:50:25.443Z,1.10
2019-01-29T05:52:53.642Z,1.20
2019-01-29T05:55:21.840Z,1.20
2019-01-29T05:57:50.032Z,1.30
2019-01-29T06:00:29.711Z,1.50
2019-01-29T06:02:57.899Z,1.50
2019-01-29T06:05:26.090Z,1.60
2019-01-29T06:07:54.287Z,1.60
2019-01-29T06:10:22.479Z,1.60
2019-01-29T06:12:50.668Z,1.60
2019-01-29T06:15:20.811Z,1.50
2019-01-29T06:17:49.012Z,1.50
2019-01-29T06:20:21.996Z,1.60
2019-01-29T06:22:50.496Z,1.60
2019-01-29T06:25:18.699Z,1.60
2019-01-29T06:27:46.885Z,1.60
2019-01-29T06:30:17.119Z,1.60
2019-01-29T06:32:45.315Z,1.60
2019-01-29T06:35:15.450Z,1.60
2019-01-29T06:37:43.641Z,1.60
2019-01-29T06:40:17.236Z,1.70
2019-01-29T06:42:45.426Z,1.70
2019-01-29T06:45:17.995Z,1.70
2019-01-29T06:47:46.211Z,1.70
2019-01-29T06:50:16.639Z,1.80
2019-01-29T06:52:44.826Z,1.80
2019-01-29T06:55:16.299Z,1.80
2019-01-29T06:57:44.492Z,1.80
2019-01-29T07:00:20.167Z,1.80
2019-01-29T07:02:48.526Z,1.80
2019-01-29T07:05:16.724Z,1.70
2019-01-29T07:07:44.916Z,1.70
2019-01-29T07:10:15.648Z,1.60
2019-01-29T07:12:43.848Z,1.60
2019-01-29T07:15:16.419Z,1.70
2019-01-29T07:17:46.392Z,1.70
2019-01-29T07:20:14.584Z,1.80
2019-01-29T07:22:42.784Z,1.80
2019-01-29T07:25:12.595Z,1.80
2019-01-29T07:27:40.799Z,1.90
2019-01-29T07:30:12.396Z,1.90
2019-01-29T07:32:40.596Z,2.00
2019-01-29T07:35:09.155Z,2.00
2019-01-29T07:37:37.351Z,2.10
2019-01-29T07:40:08.221Z,2.00
2019-01-29T07:42:36.479Z,2.00
2019-01-29T07:45:08.015Z,2.00
2019-01-29T07:47:36.212Z,2.00
2019-01-29T07:50:06.551Z,2.10
2019-01-29T07:52:34.743Z,2.20
2019-01-29T07:55:03.019Z,2.20
2019-01-29T07:57:31.211Z,2.20
2019-01-29T07:59:59.411Z,2.20
2019-01-29T08:02:27.611Z,2.30
2019-01-29T08:04:55.799Z,2.30
2019-01-29T08:07:23.986Z,2.30
2019-01-29T08:09:52.191Z,2.40
2019-01-29T08:12:20.391Z,2.40
2019-01-29T08:14:48.578Z,2.50
2019-01-29T08:17:16.779Z,2.50
2019-01-29T08:19:44.975Z,2.50
2019-01-29T08:22:13.167Z,2.50
2019-01-29T08:24:41.355Z,2.50
2019-01-29T08:27:09.555Z,2.50
2019-01-29T08:29:37.760Z,2.60
2019-01-29T08:32:05.952Z,2.60
2019-01-29T08:34:34.143Z,2.80
2019-01-29T08:37:02.347Z,3.00
2019-01-29T08:39:30.535Z,3.00
2019-01-29T08:41:58.729Z,3.30
2019-01-29T08:44:26.931Z,3.70
2019-01-29T08:46:55.124Z,3.70
2019-01-29T08:49:23.317Z,3.90
2019-01-29T08:51:51.516Z,4.20
2019-01-29T08:54:19.710Z,4.50
2019-01-29T08:56:47.923Z,4.50
2019-01-29T08:59:16.086Z,4.70
2019-01-29T09:01:44.286Z,5.00
2019-01-29T09:04:12.482Z,4.90
2019-01-29T09:06:40.671Z,6.00
2019-01-29T09:09:08.873Z,6.90
2019-01-29T09:11:37.051Z,7.60
2019-01-29T09:14:05.251Z,7.80
2019-01-29T09:16:33.439Z,7.40
2019-01-29T09:19:01.636Z,7.30
2019-01-29T09:21:29.823Z,7.70
2019-01-29T09:23:58.019Z,8.00
2019-01-29T09:26:26.211Z,8.00
2019-01-29T09:28:54.407Z,7.90
2019-01-29T09:31:22.604Z,8.30
2019-01-29T09:33:50.787Z,8.90
2019-01-29T09:36:18.990Z,9.30
2019-01-29T09:38:47.175Z,9.20
2019-01-29T09:41:15.404Z,8.70
2019-01-29T09:43:44.251Z,8.50
2019-01-29T09:46:12.445Z,8.00
2019-01-29T09:48:40.627Z,8.00
2019-01-29T09:51:08.823Z,8.30
2019-01-29T09:53:37.014Z,8.80
2019-01-29T09:56:05.216Z,9.20
2019-01-29T09:58:33.419Z,9.60
2019-01-29T10:01:01.607Z,10.20
2019-01-29T10:03:29.811Z,10.10
2019-01-29T10:05:58.015Z,10.10
2019-01-29T10:08:26.210Z,10.30
2019-01-29T10:10:54.407Z,10.30
2019-01-29T10:13:22.611Z,10.60
2019-01-29T10:15:51.694Z,10.20
2019-01-29T10:18:19.889Z,10.20
2019-01-29T10:20:48.079Z,9.80
2019-01-29T10:23:16.271Z,10.00
2019-01-29T10:25:45.031Z,9.90
2019-01-29T10:28:13.228Z,9.80
2019-01-29T10:30:41.420Z,10.00
2019-01-29T10:33:09.611Z,10.30
2019-01-29T10:35:37.820Z,10.80
2019-01-29T10:38:06.003Z,11.40
2019-01-29T10:40:34.247Z,11.80
2019-01-29T10:43:02.431Z,11.90
2019-01-29T10:45:30.618Z,12.00
2019-01-29T10:47:58.821Z,12.20
2019-01-29T10:50:29.066Z,12.60
2019-01-29T10:52:57.255Z,12.70
2019-01-29T10:55:25.459Z,12.10
2019-01-29T10:57:53.653Z,11.20
2019-01-29T11:00:25.195Z,11.20
2019-01-29T11:02:53.407Z,10.80
2019-01-29T11:05:21.599Z,10.90
2019-01-29T11:07:49.793Z,10.70
2019-01-29T11:10:19.324Z,10.50
2019-01-29T11:12:47.518Z,10.20
2019-01-29T11:15:24.979Z,10.40
2019-01-29T11:17:53.180Z,10.60
2019-01-29T11:20:21.363Z,10.70
2019-01-29T11:22:49.567Z,10.80
2019-01-29T11:25:28.833Z,10.40
2019-01-29T11:27:57.031Z,10.20
2019-01-29T11:30:27.446Z,10.10
2019-01-29T11:32:55.631Z,10.20
2019-01-29T11:35:23.811Z,10.00
2019-01-29T11:37:52.007Z,9.60
2019-01-29T11:40:26.203Z,9.70
2019-01-29T11:42:54.407Z,10.10
2019-01-29T11:45:40.780Z,10.70
2019-01-29T11:48:08.980Z,10.60
2019-01-29T11:50:37.165Z,10.60
2019-01-29T11:53:05.363Z,10.50
2019-01-29T11:55:33.559Z,10.30
2019-01-29T11:58:01.743Z,10.20
2019-01-29T12:00:36.235Z,10.30
2019-01-29T12:03:04.676Z,9.80
2019-01-29T12:05:32.864Z,10.00
2019-01-29T12:08:01.061Z,10.10
2019-01-29T12:10:29.243Z,10.40
2019-01-29T12:12:57.444Z,10.60
2019-01-29T12:15:25.647Z,10.00
2019-01-29T12:17:53.844Z,9.50
2019-01-29T12:20:22.028Z,8.50
2019-01-29T12:22:50.227Z,7.40
2019-01-29T12:25:18.418Z,7.30
2019-01-29T12:27:46.606Z,8.60
2019-01-29T12:30:22.531Z,9.80
2019-01-29T12:32:51.356Z,9.00
2019-01-29T12:35:20.112Z,8.30
2019-01-29T12:37:48.311Z,7.50
2019-01-29T12:40:16.494Z,7.10
2019-01-29T12:42:44.683Z,7.10
2019-01-29T12:45:17.360Z,7.00
2019-01-29T12:47:45.631Z,7.00
2019-01-29T12:50:16.823Z,6.60
2019-01-29T12:52:46.668Z,6.60
2019-01-29T12:55:14.851Z,7.60
2019-01-29T12:57:43.035Z,8.50
2019-01-29T13:00:17.188Z,7.90
2019-01-29T13:02:45.371Z,6.80
2019-01-29T13:05:14.040Z,6.10
2019-01-29T13:07:42.368Z,5.80
2019-01-29T13:10:13.819Z,5.70
2019-01-29T13:12:42.003Z,6.30
2019-01-29T13:15:13.595Z,6.30
2019-01-29T13:17:42.036Z,6.00
2019-01-29T13:20:11.295Z,5.60
2019-01-29T13:22:39.487Z,5.50
2019-01-29T13:25:10.107Z,5.60
2019-01-29T13:27:38.322Z,5.40
2019-01-29T13:30:09.754Z,5.40
2019-01-29T13:32:37.951Z,5.40
2019-01-29T13:35:08.573Z,5.30
2019-01-29T13:37:37.048Z,5.20
2019-01-29T13:40:08.741Z,4.90
2019-01-29T13:42:36.928Z,4.90
2019-01-29T13:45:08.370Z,4.70
2019-01-29T13:47:36.567Z,5.60
2019-01-29T13:50:11.252Z,5.70
2019-01-29T13:52:39.436Z,5.90
2019-01-29T13:55:11.076Z,5.80
2019-01-29T13:57:39.261Z,5.90
2019-01-29T14:00:12.374Z,6.30
2019-01-29T14:02:40.683Z,7.00
2019-01-29T14:05:09.041Z,7.20
2019-01-29T14:07:37.235Z,7.10
2019-01-29T14:10:08.819Z,6.30
2019-01-29T14:12:37.015Z,6.10
2019-01-29T14:15:08.039Z,5.90
2019-01-29T14:17:36.224Z,5.60
2019-01-29T14:20:08.847Z,5.40
2019-01-29T14:22:37.184Z,5.50
2019-01-29T14:25:07.964Z,4.90
2019-01-29T14:27:36.147Z,5.00
2019-01-29T14:30:07.594Z,4.90
2019-01-29T14:32:36.732Z,4.80
2019-01-29T14:35:05.319Z,4.90
2019-01-29T14:37:53.163Z,4.90
2019-01-29T14:40:21.347Z,4.60
2019-01-29T14:42:49.547Z,4.30
2019-01-29T14:45:19.380Z,4.10
2019-01-29T14:47:47.576Z,3.90
2019-01-29T14:50:16.298Z,3.90
2019-01-29T14:52:44.489Z,4.10
2019-01-29T14:55:12.743Z,4.10
2019-01-29T14:57:41.149Z,4.20
2019-01-29T15:00:30.756Z,4.00
2019-01-29T15:02:58.955Z,3.90
2019-01-29T15:05:27.131Z,4.00
2019-01-29T15:07:55.395Z,4.20
2019-01-29T15:10:25.504Z,4.40
2019-01-29T15:12:53.776Z,4.50
2019-01-29T15:15:27.315Z,4.50
2019-01-29T15:18:02.919Z,4.60
2019-01-29T15:20:31.107Z,4.40
2019-01-29T15:22:59.291Z,4.20
2019-01-29T15:25:28.055Z,4.10
2019-01-29T15:27:56.239Z,3.90
2019-01-29T15:30:28.583Z,3.70
2019-01-29T15:32:56.771Z,3.60
2019-01-29T15:35:24.963Z,3.60
2019-01-29T15:37:54.623Z,3.40
2019-01-29T15:40:23.259Z,3.40
2019-01-29T15:42:52.183Z,3.20
2019-01-29T15:45:25.191Z,3.10
2019-01-29T15:47:53.391Z,3.10
2019-01-29T15:50:23.976Z,2.90
2019-01-29T15:52:52.167Z,2.80
2019-01-29T15:55:20.449Z,2.70
2019-01-29T15:57:48.975Z,2.60
2019-01-29T16:00:28.934Z,2.40
2019-01-29T16:02:57.135Z,2.50
2019-01-29T16:05:53.531Z,2.40
2019-01-29T16:08:21.727Z,2.40
2019-01-29T16:10:49.925Z,2.30
2019-01-29T16:13:18.120Z,2.20
2019-01-29T16:15:46.307Z,2.10
2019-01-29T16:18:14.506Z,2.10
2019-01-29T16:20:42.697Z,1.90
2019-01-29T16:23:10.902Z,1.90
2019-01-29T16:25:39.088Z,1.80
2019-01-29T16:28:07.292Z,1.70
2019-01-29T16:30:41.405Z,1.60
2019-01-29T16:33:09.598Z,1.60
2019-01-29T16:35:40.691Z,1.50
2019-01-29T16:38:09.427Z,1.40
2019-01-29T16:40:39.351Z,1.40
2019-01-29T16:43:07.556Z,1.30
2019-01-29T16:45:36.241Z,1.20
2019-01-29T16:48:06.185Z,1.20
2019-01-29T16:50:34.397Z,1.20
2019-01-29T16:53:02.571Z,1.30
2019-01-29T16:55:31.785Z,1.30
2019-01-29T16:58:00.150Z,1.30
2019-01-29T17:00:30.575Z,1.30
2019-01-29T17:02:58.772Z,1.30
2019-01-29T17:05:28.200Z,1.30
2019-01-29T17:07:56.665Z,1.30
2019-01-29T17:10:31.970Z,1.20
2019-01-29T17:13:00.155Z,1.10
2019-01-29T17:15:33.426Z,1.10
2019-01-29T17:18:01.888Z,1.20
2019-01-29T17:20:44.348Z,1.30
2019-01-29T17:23:12.794Z,1.30
2019-01-29T17:25:41.030Z,1.20
2019-01-29T17:28:09.264Z,1.10
2019-01-29T17:30:42.473Z,1.10
2019-01-29T17:33:11.465Z,1.10
2019-01-29T17:35:40.300Z,1.10
2019-01-29T17:38:08.479Z,1.00
2019-01-29T17:40:36.668Z,1.00
2019-01-29T17:43:05.404Z,1.00
2019-01-29T17:45:39.491Z,1.10
2019-01-29T17:48:07.692Z,1.20
2019-01-29T17:50:38.671Z,1.30
2019-01-29T17:53:06.875Z,1.40
2019-01-29T17:55:36.501Z,1.40
2019-01-29T17:58:05.331Z,1.40
2019-01-29T18:00:35.201Z,1.40
2019-01-29T18:03:03.395Z,1.30
2019-01-29T18:05:31.580Z,1.30
2019-01-29T18:07:59.771Z,1.10
2019-01-29T18:10:27.959Z,1.10
2019-01-29T18:12:56.159Z,1.10
2019-01-29T18:15:31.391Z,1.10
2019-01-29T18:17:59.593Z,1.10
2019-01-29T18:20:27.782Z,1.20
2019-01-29T18:22:55.976Z,1.10
2019-01-29T18:25:24.753Z,1.10
2019-01-29T18:28:00.877Z,1.10
2019-01-29T18:30:28.592Z,1.10
2019-01-29T18:32:56.795Z,1.10
2019-01-29T18:35:24.995Z,1.00
2019-01-29T18:37:53.237Z,1.00
2019-01-29T18:40:27.388Z,0.90
2019-01-29T18:42:55.588Z,0.90
2019-01-29T18:45:23.771Z,0.80
2019-01-29T18:47:51.969Z,0.80
2019-01-29T18:50:20.987Z,0.80
2019-01-29T18:52:49.175Z,0.80
2019-01-29T18:55:17.364Z,0.80
2019-01-29T18:57:45.562Z,0.70
2019-01-29T19:00:19.395Z,0.80
2019-01-29T19:02:47.576Z,0.80
2019-01-29T19:05:16.513Z,0.80
2019-01-29T19:07:44.990Z,0.80
2019-01-29T19:10:15.812Z,0.80
2019-01-29T19:12:44.576Z,0.80
2019-01-29T19:15:17.363Z,0.90
2019-01-29T19:17:46.119Z,0.80
2019-01-29T19:20:16.862Z,0.90
2019-01-29T19:22:45.056Z,0.90
2019-01-29T19:25:14.983Z,0.90
2019-01-29T19:27:43.179Z,0.80
2019-01-29T19:30:22.796Z,0.80
2019-01-29T19:32:50.992Z,0.80
2019-01-29T19:35:19.246Z,0.80
2019-01-29T19:37:47.454Z,0.70
2019-01-29T19:40:17.283Z,0.70
2019-01-29T19:42:45.489Z,0.80
2019-01-29T19:45:19.338Z,0.90
2019-01-29T19:47:47.544Z,0.90
2019-01-29T19:50:18.731Z,0.90
2019-01-29T19:52:46.919Z,0.90
2019-01-29T19:55:15.119Z,0.90
2019-01-29T19:57:43.580Z,0.90
2019-01-29T20:00:17.543Z,0.90
2019-01-29T20:02:45.732Z,0.90
2019-01-29T20:05:13.945Z,0.90
2019-01-29T20:07:42.127Z,1.00
2019-01-29T20:10:13.459Z,1.00
2019-01-29T20:12:41.664Z,1.00
2019-01-29T20:15:12.603Z,1.00
2019-01-29T20:17:40.793Z,1.10
2019-01-29T20:20:15.055Z,1.00
2019-01-29T20:22:43.251Z,1.10
2019-01-29T20:25:11.615Z,1.10
2019-01-29T20:27:39.816Z,1.10
2019-01-29T20:30:23.116Z,1.10
2019-01-29T20:32:53.470Z,1.10
2019-01-29T20:35:21.228Z,1.10
2019-01-29T20:37:49.413Z,1.20
2019-01-29T20:40:19.651Z,1.10
2019-01-29T20:42:47.840Z,1.10
2019-01-29T20:45:16.099Z,1.10
2019-01-29T20:47:44.299Z,1.10
2019-01-29T20:50:20.794Z,1.10
2019-01-29T20:52:49.008Z,1.20
2019-01-29T20:55:17.204Z,1.10
2019-01-29T20:57:45.383Z,1.10
2019-01-29T21:00:21.937Z,1.10
2019-01-29T21:02:50.127Z,1.10
2019-01-29T21:05:18.315Z,1.10
2019-01-29T21:07:46.511Z,1.00
2019-01-29T21:10:21.892Z,1.10
2019-01-29T21:12:50.079Z,1.10
2019-01-29T21:15:23.757Z,1.10
2019-01-29T21:17:52.335Z,1.10
2019-01-29T21:20:22.476Z,1.10
2019-01-29T21:22:50.672Z,1.10
2019-01-29T21:25:18.863Z,1.10
2019-01-29T21:27:47.061Z,1.20
2019-01-29T21:30:21.009Z,1.10
2019-01-29T21:32:49.199Z,1.10
2019-01-29T21:35:17.383Z,1.10
2019-01-29T21:37:45.584Z,1.10
2019-01-29T21:40:15.623Z,1.10
2019-01-29T21:42:43.806Z,1.10
2019-01-29T21:45:19.755Z,1.10
2019-01-29T21:47:48.867Z,1.10
2019-01-29T21:50:22.299Z,1.00
2019-01-29T21:52:50.499Z,1.00
2019-01-29T21:55:18.696Z,1.00
2019-01-29T21:57:46.885Z,1.00
2019-01-29T22:00:29.639Z,1.00
2019-01-29T22:02:57.832Z,0.90
2019-01-29T22:05:26.040Z,0.90
2019-01-29T22:07:54.235Z,0.90
2019-01-29T22:10:22.433Z,0.90
2019-01-29T22:12:50.619Z,0.90
2019-01-29T22:15:23.724Z,0.90
2019-01-29T22:17:51.911Z,0.80
2019-01-29T22:20:22.411Z,0.80
2019-01-29T22:22:50.600Z,0.90
2019-01-29T22:25:20.135Z,0.90
2019-01-29T22:27:48.320Z,0.90
2019-01-29T22:30:22.455Z,0.90
2019-01-29T22:32:50.647Z,0.90
2019-01-29T22:35:18.834Z,0.90
2019-01-29T22:37:47.032Z,0.90
2019-01-29T22:40:22.927Z,0.90
2019-01-29T22:42:51.122Z,0.90
2019-01-29T22:45:19.310Z,0.90
2019-01-29T22:47:47.500Z,0.90
2019-01-29T22:50:21.599Z,0.90
2019-01-29T22:52:49.784Z,0.90
2019-01-29T22:55:17.979Z,1.00
2019-01-29T22:57:46.175Z,0.90
2019-01-29T23:00:28.163Z,1.00
2019-01-29T23:02:56.351Z,1.00
2019-01-29T23:05:24.543Z,1.00
2019-01-29T23:07:52.740Z,1.10
2019-01-29T23:10:21.700Z,1.00
2019-01-29T23:12:49.891Z,1.00
2019-01-29T23:15:19.129Z,1.00
2019-01-29T23:17:47.329Z,1.10
2019-01-29T23:20:16.869Z,1.10
2019-01-29T23:22:45.132Z,1.10
2019-01-29T23:25:13.306Z,1.10
2019-01-29T23:27:41.839Z,1.20
2019-01-29T23:30:13.426Z,1.20
2019-01-29T23:32:41.627Z,1.20
2019-01-29T23:35:09.811Z,1.20
2019-01-29T23:37:38.015Z,1.10
2019-01-29T23:40:17.344Z,1.10
2019-01-29T23:42:45.536Z,1.10
2019-01-29T23:45:14.868Z,1.00
2019-01-29T23:47:43.062Z,1.00
2019-01-29T23:50:15.067Z,1.00
2019-01-29T23:52:43.251Z,1.00
2019-01-29T23:55:11.587Z,0.90
2019-01-29T23:57:39.767Z,0.90
